createdAt,value
2023-05-25T00:00:53.360Z,12.10
2023-05-25T00:03:27.823Z,7.97
2023-05-25T00:05:54.628Z,9.90
2023-05-25T00:08:21.282Z,11.27
2023-05-25T00:10:47.828Z,8.40
2023-05-25T00:13:14.362Z,8.13
2023-05-25T00:15:41.251Z,8.70
2023-05-25T00:18:08.024Z,7.17
2023-05-25T00:20:35.157Z,9.50
2023-05-25T00:23:04.747Z,20.10
2023-05-25T00:25:31.258Z,13.50
2023-05-25T00:27:57.798Z,7.47
2023-05-25T00:30:24.334Z,5.40
2023-05-25T00:32:51.639Z,6.90
2023-05-25T00:35:18.166Z,8.63
2023-05-25T00:37:45.397Z,7.77
2023-05-25T00:40:16.517Z,11.53
2023-05-25T00:42:44.030Z,7.93
2023-05-25T00:45:11.356Z,6.07
2023-05-25T00:47:40.075Z,7.53
2023-05-25T00:50:09.330Z,7.50
2023-05-25T00:52:36.042Z,12.63
2023-05-25T00:55:03.371Z,9.77
2023-05-25T00:57:34.266Z,8.97
2023-05-25T01:00:02.329Z,8.60
2023-05-25T01:02:29.611Z,12.63
2023-05-25T01:05:00.454Z,14.90
2023-05-25T01:07:27.890Z,7.63
2023-05-25T01:10:01.587Z,9.87
2023-05-25T01:12:36.534Z,6.60
2023-05-25T01:15:05.022Z,8.47
2023-05-25T01:17:32.250Z,10.00
2023-05-25T01:20:09.789Z,10.73
2023-05-25T01:22:41.200Z,13.33
2023-05-25T01:25:17.679Z,11.43
2023-05-25T01:27:48.771Z,10.50
2023-05-25T01:30:17.048Z,6.90
2023-05-25T01:32:45.572Z,11.80
2023-05-25T01:35:13.522Z,13.03
2023-05-25T01:37:46.316Z,9.10
2023-05-25T01:40:14.524Z,8.37
2023-05-25T01:42:41.330Z,7.50
2023-05-25T01:45:10.847Z,16.13
2023-05-25T01:48:13.468Z,7.17
2023-05-25T01:50:43.612Z,9.30
2023-05-25T01:53:14.122Z,9.20
2023-05-25T01:55:51.245Z,7.83
2023-05-25T01:58:19.645Z,9.40
2023-05-25T02:00:49.442Z,12.43
2023-05-25T02:03:16.423Z,13.60
2023-05-25T02:05:43.996Z,16.50
2023-05-25T02:08:10.970Z,15.67
2023-05-25T02:10:37.500Z,16.73
2023-05-25T02:13:04.849Z,14.97
2023-05-25T02:15:32.980Z,11.77
2023-05-25T02:18:00.923Z,9.70
2023-05-25T02:20:30.214Z,10.40
2023-05-25T02:22:56.864Z,10.57
2023-05-25T02:25:23.412Z,10.07
2023-05-25T02:27:50.700Z,11.30
2023-05-25T02:30:18.617Z,24.03
2023-05-25T02:32:45.467Z,9.40
2023-05-25T02:35:12.572Z,16.83
2023-05-25T02:37:39.324Z,10.53
2023-05-25T02:40:09.354Z,11.10
2023-05-25T02:42:36.081Z,13.37
2023-05-25T02:45:06.382Z,12.23
2023-05-25T02:47:34.061Z,11.80
2023-05-25T02:50:01.624Z,13.40
2023-05-25T02:52:30.546Z,11.60
2023-05-25T02:54:58.758Z,13.60
2023-05-25T02:57:31.645Z,13.30
2023-05-25T02:59:59.509Z,23.37
2023-05-25T03:02:26.197Z,23.20
2023-05-25T03:04:55.606Z,17.30
2023-05-25T03:07:25.503Z,14.57
2023-05-25T03:09:54.624Z,19.43
2023-05-25T03:12:22.385Z,15.10
2023-05-25T03:14:50.104Z,19.93
2023-05-25T03:17:17.401Z,15.30
2023-05-25T03:19:44.400Z,17.07
2023-05-25T03:22:11.565Z,15.70
2023-05-25T03:24:41.474Z,18.07
2023-05-25T03:27:09.148Z,17.60
2023-05-25T03:29:36.046Z,20.37
2023-05-25T03:32:03.013Z,19.10
2023-05-25T03:34:34.564Z,14.00
2023-05-25T03:37:02.198Z,20.93
2023-05-25T03:39:29.173Z,15.53
2023-05-25T03:41:56.085Z,16.10
2023-05-25T03:44:23.532Z,12.67
2023-05-25T03:46:50.176Z,20.33
2023-05-25T03:49:16.900Z,16.77
2023-05-25T03:51:44.336Z,16.07
2023-05-25T03:54:12.682Z,18.67
2023-05-25T03:56:39.289Z,15.40
2023-05-25T03:59:06.227Z,21.63
2023-05-25T04:01:32.846Z,14.60
2023-05-25T04:03:59.620Z,17.20
2023-05-25T04:06:26.338Z,15.33
2023-05-25T04:08:53.060Z,15.73
2023-05-25T04:11:20.923Z,19.57
2023-05-25T04:13:47.778Z,22.17
2023-05-25T04:16:14.736Z,16.90
2023-05-25T04:18:41.890Z,16.03
2023-05-25T04:21:08.536Z,14.50
2023-05-25T04:23:35.445Z,19.23
2023-05-25T04:26:03.807Z,19.40
2023-05-25T04:28:30.684Z,15.90
2023-05-25T04:31:09.388Z,13.47
2023-05-25T04:34:02.677Z,16.80
2023-05-25T04:36:32.702Z,14.30
2023-05-25T04:39:04.502Z,15.30
2023-05-25T04:41:33.915Z,15.83
2023-05-25T04:44:09.697Z,17.23
2023-05-25T04:46:42.664Z,21.00
2023-05-25T04:49:14.801Z,13.03
2023-05-25T04:51:41.383Z,22.90
2023-05-25T04:54:08.583Z,20.53
2023-05-25T04:56:35.199Z,17.23
2023-05-25T04:59:04.372Z,19.00
2023-05-25T05:01:31.431Z,20.00
2023-05-25T05:04:02.067Z,12.93
2023-05-25T05:06:28.752Z,19.23
2023-05-25T05:08:56.024Z,14.60
2023-05-25T05:11:23.569Z,14.20
2023-05-25T05:13:50.715Z,14.30
2023-05-25T05:16:17.576Z,17.87
2023-05-25T05:18:44.180Z,16.30
2023-05-25T05:21:10.765Z,14.63
2023-05-25T05:23:37.642Z,15.50
2023-05-25T05:26:05.083Z,17.47
2023-05-25T05:28:31.800Z,19.50
2023-05-25T05:30:58.815Z,15.83
2023-05-25T05:33:25.725Z,17.37
2023-05-25T05:35:54.692Z,14.00
2023-05-25T05:38:22.470Z,16.70
2023-05-25T05:40:49.053Z,13.23
2023-05-25T05:43:20.586Z,15.83
2023-05-25T05:45:47.456Z,15.13
2023-05-25T05:48:14.273Z,18.53
2023-05-25T05:50:42.213Z,16.60
2023-05-25T05:53:11.049Z,19.40
2023-05-25T05:55:37.970Z,16.07
2023-05-25T05:58:04.680Z,17.20
2023-05-25T06:00:32.088Z,21.57
2023-05-25T06:03:00.485Z,15.23
2023-05-25T06:05:29.483Z,21.70
2023-05-25T06:07:57.546Z,18.30
2023-05-25T06:10:24.152Z,24.63
2023-05-25T06:12:52.171Z,15.60
2023-05-25T06:15:18.859Z,18.53
2023-05-25T06:17:47.494Z,15.87
2023-05-25T06:20:15.593Z,23.27
2023-05-25T06:22:42.736Z,14.83
2023-05-25T06:25:10.473Z,20.90
2023-05-25T06:27:37.805Z,17.10
2023-05-25T06:30:05.002Z,25.67
2023-05-25T06:32:31.951Z,20.30
2023-05-25T06:34:58.825Z,16.60
2023-05-25T06:37:27.296Z,15.70
2023-05-25T06:39:56.227Z,15.47
2023-05-25T06:42:24.084Z,21.10
2023-05-25T06:44:55.127Z,21.70
2023-05-25T06:47:21.863Z,15.77
2023-05-25T06:49:48.528Z,15.57
2023-05-25T06:52:15.053Z,17.70
2023-05-25T06:54:41.621Z,22.83
2023-05-25T06:57:08.232Z,14.80
2023-05-25T06:59:34.738Z,19.60
2023-05-25T07:02:01.381Z,16.20
2023-05-25T07:04:28.635Z,18.17
2023-05-25T07:06:55.204Z,20.10
2023-05-25T07:09:22.298Z,12.90
2023-05-25T07:11:48.801Z,13.33
2023-05-25T07:14:15.558Z,17.53
2023-05-25T07:16:42.136Z,23.67
2023-05-25T07:19:08.699Z,14.90
2023-05-25T07:21:35.263Z,11.17
2023-05-25T07:24:02.095Z,19.13
2023-05-25T07:26:29.038Z,15.53
2023-05-25T07:28:55.743Z,17.00
2023-05-25T07:31:22.548Z,20.57
2023-05-25T07:33:49.413Z,19.93
2023-05-25T07:36:16.275Z,16.93
2023-05-25T07:38:42.988Z,18.23
2023-05-25T07:41:09.534Z,15.17
2023-05-25T07:43:37.415Z,20.93
2023-05-25T07:46:04.041Z,14.93
2023-05-25T07:48:30.686Z,14.60
2023-05-25T07:50:57.523Z,15.83
2023-05-25T07:53:24.113Z,15.43
2023-05-25T07:55:50.841Z,19.33
2023-05-25T07:58:17.372Z,16.23
2023-05-25T08:00:44.300Z,17.40
2023-05-25T08:03:11.220Z,15.83
2023-05-25T08:05:38.021Z,16.03
2023-05-25T08:08:04.574Z,17.30
2023-05-25T08:10:34.624Z,14.10
2023-05-25T08:13:01.194Z,17.33
2023-05-25T08:15:27.860Z,20.33
2023-05-25T08:17:55.775Z,18.17
2023-05-25T08:20:23.973Z,19.20
2023-05-25T08:22:53.392Z,14.63
2023-05-25T08:25:20.075Z,18.83
2023-05-25T08:27:47.201Z,15.70
2023-05-25T08:30:13.838Z,15.67
2023-05-25T08:32:40.554Z,12.17
2023-05-25T08:35:08.050Z,17.50
2023-05-25T08:37:35.606Z,16.40
2023-05-25T08:40:02.857Z,17.63
2023-05-25T08:42:29.928Z,15.80
2023-05-25T08:44:59.188Z,23.33
2023-05-25T08:47:29.674Z,18.60
2023-05-25T08:49:56.712Z,12.80
2023-05-25T08:52:25.168Z,14.57
2023-05-25T08:54:55.234Z,14.97
2023-05-25T08:57:36.550Z,12.33
2023-05-25T09:00:07.264Z,17.97
2023-05-25T09:02:42.549Z,12.63
2023-05-25T09:05:09.734Z,12.27
2023-05-25T09:07:36.451Z,18.50
2023-05-25T09:10:03.582Z,13.83
2023-05-25T09:12:31.134Z,16.90
2023-05-25T09:14:59.272Z,19.87
2023-05-25T09:17:26.553Z,17.80
2023-05-25T09:19:53.384Z,17.43
2023-05-25T09:22:20.066Z,19.90
2023-05-25T09:24:47.190Z,15.83
2023-05-25T09:27:21.960Z,16.73
2023-05-25T09:29:50.111Z,11.67
2023-05-25T09:32:18.523Z,14.03
2023-05-25T09:34:46.517Z,23.83
2023-05-25T09:37:14.983Z,12.50
2023-05-25T09:39:42.617Z,11.50
2023-05-25T09:42:10.283Z,11.80
2023-05-25T09:44:37.263Z,14.33
2023-05-25T09:47:05.296Z,15.47
2023-05-25T09:49:32.101Z,21.63
2023-05-25T09:52:00.215Z,14.73
2023-05-25T09:54:27.257Z,14.33
2023-05-25T09:56:54.320Z,14.27
2023-05-25T09:59:22.654Z,15.20
2023-05-25T10:01:55.160Z,16.13
2023-05-25T10:04:21.813Z,11.10
2023-05-25T10:06:50.018Z,12.23
2023-05-25T10:09:18.825Z,17.70
2023-05-25T10:11:45.853Z,12.67
2023-05-25T10:14:17.415Z,16.37
2023-05-25T10:16:48.234Z,13.27
2023-05-25T10:19:21.905Z,13.40
2023-05-25T10:21:59.650Z,11.33
2023-05-25T10:24:42.134Z,13.80
2023-05-25T10:30:01.843Z,11.83
2023-05-25T10:32:29.649Z,14.50
2023-05-25T10:34:57.492Z,17.33
2023-05-25T10:37:28.187Z,14.40
2023-05-25T10:39:57.943Z,14.63
2023-05-25T10:42:26.094Z,12.53
2023-05-25T10:44:52.775Z,11.27
2023-05-25T10:47:19.727Z,16.53
2023-05-25T10:49:58.132Z,15.97
2023-05-25T10:52:31.963Z,20.70
2023-05-25T10:55:05.201Z,17.03
2023-05-25T10:57:31.830Z,13.00
2023-05-25T11:00:08.901Z,17.37
2023-05-25T11:02:56.010Z,16.37
2023-05-25T11:05:25.891Z,11.80
2023-05-25T11:07:53.395Z,13.90
2023-05-25T11:10:38.320Z,15.30
2023-05-25T11:13:47.297Z,13.10
2023-05-25T11:16:14.646Z,14.27
2023-05-25T11:18:41.992Z,14.23
2023-05-25T11:21:27.886Z,14.63
2023-05-25T11:24:06.711Z,14.00
2023-05-25T11:26:34.743Z,11.07
2023-05-25T11:29:12.296Z,13.07
2023-05-25T11:31:42.445Z,13.27
2023-05-25T11:34:12.236Z,10.60
2023-05-25T11:36:39.346Z,10.53
2023-05-25T11:39:16.986Z,14.47
2023-05-25T11:41:55.372Z,12.27
2023-05-25T11:44:28.650Z,11.93
2023-05-25T11:47:01.718Z,16.17
2023-05-25T11:49:28.977Z,11.83
2023-05-25T11:51:57.349Z,14.80
2023-05-25T11:54:26.255Z,11.03
2023-05-25T11:56:56.605Z,12.23
2023-05-25T11:59:24.624Z,14.20
2023-05-25T12:01:56.780Z,9.73
2023-05-25T12:04:24.540Z,11.97
2023-05-25T12:06:51.461Z,14.70
2023-05-25T12:09:22.326Z,12.60
2023-05-25T12:11:49.236Z,12.67
2023-05-25T12:14:16.109Z,12.97
2023-05-25T12:16:43.177Z,12.80
2023-05-25T12:19:11.990Z,11.97
2023-05-25T12:21:41.944Z,15.63
2023-05-25T12:24:09.701Z,10.40
2023-05-25T12:26:47.857Z,10.57
2023-05-25T12:29:14.753Z,11.70
2023-05-25T12:31:41.730Z,10.97
2023-05-25T12:34:14.396Z,8.30
2023-05-25T12:36:42.249Z,13.37
2023-05-25T12:39:09.936Z,11.40
2023-05-25T12:41:47.831Z,13.30
2023-05-25T12:44:25.488Z,11.17
2023-05-25T12:46:53.933Z,11.40
2023-05-25T12:49:32.030Z,13.60
2023-05-25T12:52:00.713Z,14.80
2023-05-25T12:54:36.401Z,14.53
2023-05-25T12:57:07.773Z,15.47
2023-05-25T12:59:35.751Z,13.43
2023-05-25T13:02:03.512Z,12.27
2023-05-25T13:04:30.137Z,13.63
2023-05-25T13:06:56.764Z,20.70
2023-05-25T13:09:27.588Z,14.70
2023-05-25T13:11:58.645Z,20.33
2023-05-25T13:14:26.456Z,21.10
2023-05-25T13:16:54.547Z,15.40
2023-05-25T13:19:24.289Z,11.00
2023-05-25T13:21:51.981Z,15.27
2023-05-25T13:24:19.777Z,17.73
2023-05-25T13:26:49.889Z,21.93
2023-05-25T13:29:17.771Z,14.97
2023-05-25T13:31:44.561Z,17.27
2023-05-25T13:34:11.720Z,15.10
2023-05-25T13:36:38.344Z,13.83
2023-05-25T13:39:05.347Z,13.27
2023-05-25T13:41:31.981Z,13.10
2023-05-25T13:43:58.791Z,13.97
2023-05-25T13:46:33.976Z,11.50
2023-05-25T13:49:02.160Z,13.50
2023-05-25T13:51:28.740Z,17.70
2023-05-25T13:53:55.446Z,17.40
2023-05-25T13:56:22.491Z,14.90
2023-05-25T13:58:49.156Z,15.80
2023-05-25T14:01:15.990Z,12.20
2023-05-25T14:03:42.793Z,17.90
2023-05-25T14:06:09.507Z,16.63
2023-05-25T14:08:36.080Z,17.53
2023-05-25T14:11:03.146Z,11.70
2023-05-25T14:13:30.065Z,15.30
2023-05-25T14:15:57.105Z,12.07
2023-05-25T14:18:23.681Z,11.33
2023-05-25T14:20:50.477Z,12.13
2023-05-25T14:23:19.117Z,16.90
2023-05-25T14:25:46.946Z,12.00
2023-05-25T14:28:14.019Z,18.10
2023-05-25T14:30:40.632Z,12.43
2023-05-25T14:33:13.882Z,13.47
2023-05-25T14:35:42.185Z,14.67
2023-05-25T14:38:09.011Z,16.13
2023-05-25T14:40:35.543Z,10.03
2023-05-25T14:43:02.079Z,10.13
2023-05-25T14:45:28.580Z,13.40
2023-05-25T14:48:00.888Z,12.93
2023-05-25T14:50:34.826Z,10.30
2023-05-25T14:53:01.432Z,10.50
2023-05-25T14:55:27.988Z,11.90
2023-05-25T14:57:54.663Z,13.27
2023-05-25T15:00:21.322Z,8.67
2023-05-25T15:02:47.971Z,14.57
2023-05-25T15:05:14.728Z,11.63
2023-05-25T15:07:41.548Z,10.27
2023-05-25T15:10:08.558Z,12.27
2023-05-25T15:12:35.200Z,10.20
2023-05-25T15:15:01.748Z,12.53
2023-05-25T15:17:28.420Z,11.90
2023-05-25T15:19:55.005Z,8.33
2023-05-25T15:22:21.756Z,8.80
2023-05-25T15:24:48.407Z,11.40
2023-05-25T15:27:15.053Z,8.27
2023-05-25T15:29:41.555Z,12.27
2023-05-25T15:32:09.802Z,11.50
2023-05-25T15:34:36.824Z,9.67
2023-05-25T15:37:03.478Z,8.83
2023-05-25T15:39:30.004Z,9.83
2023-05-25T15:41:56.719Z,12.43
2023-05-25T15:44:23.421Z,9.20
2023-05-25T15:46:50.183Z,8.37
2023-05-25T15:49:16.815Z,8.57
2023-05-25T15:51:44.410Z,10.43
2023-05-25T15:54:14.410Z,9.10
2023-05-25T15:56:41.469Z,10.77
2023-05-25T15:59:08.035Z,12.30
2023-05-25T16:01:36.888Z,8.90
2023-05-25T16:04:06.637Z,7.00
2023-05-25T16:06:33.200Z,12.97
2023-05-25T16:08:59.785Z,7.70
2023-05-25T16:11:28.296Z,7.47
2023-05-25T16:16:49.707Z,11.20
2023-05-25T16:19:16.338Z,9.30
2023-05-25T16:21:42.880Z,8.43
2023-05-25T16:24:09.535Z,6.77
2023-05-25T16:26:36.293Z,7.97
2023-05-25T16:29:02.839Z,11.13
2023-05-25T16:31:29.457Z,7.83
2023-05-25T16:33:56.620Z,9.57
2023-05-25T16:36:25.269Z,7.03
2023-05-25T16:38:53.050Z,6.83
2023-05-25T16:41:19.692Z,7.77
2023-05-25T16:43:46.203Z,7.43
2023-05-25T16:46:12.811Z,10.30
2023-05-25T16:48:39.517Z,10.40
2023-05-25T16:51:07.370Z,7.50
2023-05-25T16:53:33.940Z,6.47
2023-05-25T16:56:00.476Z,10.90
2023-05-25T16:58:26.981Z,8.07
2023-05-25T17:00:53.588Z,14.13
2023-05-25T17:03:20.335Z,8.53
2023-05-25T17:05:47.025Z,9.47
2023-05-25T17:08:13.631Z,8.70
2023-05-25T17:10:41.286Z,6.03
2023-05-25T17:13:07.822Z,8.00
2023-05-25T17:15:34.398Z,6.60
2023-05-25T17:18:01.007Z,9.73
2023-05-25T17:20:27.747Z,11.73
2023-05-25T17:22:54.411Z,8.63
2023-05-25T17:25:21.126Z,15.20
2023-05-25T17:27:47.891Z,7.87
2023-05-25T17:30:14.647Z,7.90
2023-05-25T17:32:41.632Z,7.33
2023-05-25T17:35:09.216Z,5.97
2023-05-25T17:37:36.152Z,6.63
2023-05-25T17:40:02.800Z,6.70
2023-05-25T17:42:29.404Z,9.80
2023-05-25T17:44:56.974Z,9.90
2023-05-25T17:47:24.076Z,7.13
2023-05-25T17:49:50.718Z,11.57
2023-05-25T17:52:17.300Z,5.97
2023-05-25T17:54:43.864Z,13.00
2023-05-25T17:57:10.960Z,6.20
2023-05-25T17:59:37.542Z,10.73
2023-05-25T18:02:04.226Z,13.37
2023-05-25T18:04:30.794Z,10.23
2023-05-25T18:06:57.329Z,9.87
2023-05-25T18:09:23.889Z,7.40
2023-05-25T18:11:51.420Z,7.27
2023-05-25T18:14:18.960Z,8.40
2023-05-25T18:16:45.652Z,10.10
2023-05-25T18:19:12.316Z,8.53
2023-05-25T18:21:40.070Z,6.43
2023-05-25T18:24:08.408Z,7.97
2023-05-25T18:26:36.076Z,7.37
2023-05-25T18:29:02.751Z,5.70
2023-05-25T18:31:32.012Z,7.43
2023-05-25T18:33:59.530Z,10.43
2023-05-25T18:36:26.542Z,5.57
2023-05-25T18:38:53.123Z,8.97
2023-05-25T18:41:21.455Z,7.23
2023-05-25T18:43:49.038Z,6.90
2023-05-25T18:46:16.214Z,4.30
2023-05-25T18:48:42.818Z,5.30
2023-05-25T18:51:09.620Z,5.40
2023-05-25T18:53:36.250Z,7.30
2023-05-25T18:56:02.786Z,6.73
2023-05-25T18:58:29.316Z,5.73
2023-05-25T19:00:55.854Z,6.00
2023-05-25T19:03:22.426Z,7.67
2023-05-25T19:05:49.020Z,10.43
2023-05-25T19:08:15.623Z,9.77
2023-05-25T19:10:42.255Z,10.83
2023-05-25T19:13:08.889Z,7.63
2023-05-25T19:15:35.796Z,9.30
2023-05-25T19:18:05.720Z,7.40
2023-05-25T19:20:36.664Z,13.20
2023-05-25T19:23:03.320Z,9.37
2023-05-25T19:25:29.844Z,7.57
2023-05-25T19:27:58.528Z,12.43
2023-05-25T19:30:25.386Z,6.90
2023-05-25T19:32:52.074Z,6.93
2023-05-25T19:35:18.693Z,11.90
2023-05-25T19:37:45.571Z,7.97
2023-05-25T19:40:13.303Z,7.90
2023-05-25T19:42:39.884Z,9.10
2023-05-25T19:45:06.778Z,8.23
2023-05-25T19:47:33.468Z,7.60
2023-05-25T19:50:00.209Z,13.77
2023-05-25T19:52:26.820Z,11.03
2023-05-25T19:54:53.352Z,8.33
2023-05-25T19:57:21.004Z,12.60
2023-05-25T19:59:47.620Z,5.53
2023-05-25T20:02:14.267Z,7.47
2023-05-25T20:04:41.439Z,13.03
2023-05-25T20:07:07.981Z,7.93
2023-05-25T20:09:35.687Z,5.70
2023-05-25T20:12:02.545Z,7.10
2023-05-25T20:14:30.299Z,6.37
2023-05-25T20:16:56.951Z,10.53
2023-05-25T20:19:23.586Z,8.73
2023-05-25T20:21:50.599Z,15.90
2023-05-25T20:24:17.545Z,7.57
2023-05-25T20:26:44.124Z,8.90
2023-05-25T20:29:10.748Z,8.40
2023-05-25T20:31:37.399Z,11.23
2023-05-25T20:34:03.987Z,10.23
2023-05-25T20:36:30.846Z,11.20
2023-05-25T20:38:57.444Z,8.40
2023-05-25T20:41:23.989Z,9.13
2023-05-25T20:43:50.567Z,9.90
2023-05-25T20:46:17.255Z,9.60
2023-05-25T20:48:44.063Z,12.30
2023-05-25T20:51:11.601Z,15.60
2023-05-25T20:53:38.192Z,15.20
2023-05-25T20:56:04.958Z,17.37
2023-05-25T20:58:31.578Z,13.40
2023-05-25T21:00:58.195Z,15.30
2023-05-25T21:03:24.934Z,12.00
2023-05-25T21:05:51.579Z,10.77
2023-05-25T21:08:18.183Z,12.23
2023-05-25T21:10:44.790Z,12.63
2023-05-25T21:13:11.610Z,10.50
2023-05-25T21:15:38.144Z,7.90
2023-05-25T21:18:06.927Z,8.97
2023-05-25T21:20:33.787Z,8.50
2023-05-25T21:23:02.445Z,9.77
2023-05-25T21:25:29.659Z,8.13
2023-05-25T21:27:57.181Z,9.60
2023-05-25T21:30:24.389Z,9.60
2023-05-25T21:32:51.315Z,9.10
2023-05-25T21:35:18.170Z,11.70
2023-05-25T21:37:45.679Z,8.87
2023-05-25T21:40:12.485Z,8.27
2023-05-25T21:42:39.056Z,11.87
2023-05-25T21:45:06.272Z,10.37
2023-05-25T21:47:32.807Z,12.97
2023-05-25T21:49:59.575Z,9.70
2023-05-25T21:52:26.637Z,11.57
2023-05-25T21:54:53.222Z,11.03
2023-05-25T21:57:20.033Z,10.50
2023-05-25T21:59:46.865Z,9.87
2023-05-25T22:02:13.427Z,13.07
2023-05-25T22:04:39.980Z,11.53
2023-05-25T22:07:06.541Z,11.80
2023-05-25T22:09:33.230Z,12.13
2023-05-25T22:11:59.778Z,9.40
2023-05-25T22:14:26.323Z,11.47
2023-05-25T22:16:52.872Z,11.20
2023-05-25T22:19:19.465Z,11.30
2023-05-25T22:21:46.334Z,14.93
2023-05-25T22:24:12.912Z,12.90
2023-05-25T22:26:39.522Z,13.60
2023-05-25T22:29:06.206Z,17.90
2023-05-25T22:31:32.794Z,13.20
2023-05-25T22:33:59.390Z,15.20
2023-05-25T22:36:25.920Z,17.13
2023-05-25T22:38:52.463Z,12.33
2023-05-25T22:41:19.050Z,14.37
2023-05-25T22:43:45.622Z,11.70
2023-05-25T22:46:12.180Z,14.40
2023-05-25T22:48:38.710Z,15.10
2023-05-25T22:51:05.302Z,15.73
2023-05-25T22:53:31.870Z,12.70
2023-05-25T22:55:58.419Z,13.63
2023-05-25T22:58:25.024Z,14.43
2023-05-25T23:00:51.544Z,12.33
2023-05-25T23:03:18.218Z,13.80
2023-05-25T23:05:45.039Z,14.20
2023-05-25T23:08:11.747Z,12.73
2023-05-25T23:10:38.276Z,12.23
2023-05-25T23:13:06.273Z,11.27
2023-05-25T23:15:33.385Z,13.10
2023-05-25T23:17:59.935Z,14.13
2023-05-25T23:20:26.588Z,12.00
2023-05-25T23:22:53.174Z,13.97
2023-05-25T23:25:19.710Z,14.50
2023-05-25T23:27:46.384Z,14.90
2023-05-25T23:30:13.000Z,20.03
2023-05-25T23:32:39.631Z,16.63
2023-05-25T23:35:06.682Z,13.67
2023-05-25T23:37:33.531Z,11.23
2023-05-25T23:40:00.197Z,14.60
2023-05-25T23:42:29.783Z,16.63
2023-05-25T23:44:57.082Z,14.00
2023-05-25T23:47:23.726Z,14.10
2023-05-25T23:49:50.335Z,13.30
2023-05-25T23:52:16.832Z,11.97
2023-05-25T23:54:43.416Z,11.73
2023-05-25T23:57:09.927Z,15.60
2023-05-25T23:59:36.472Z,15.40
